Time;durP1;ratioP1;P1;durP2;ratioP2;P2;SDS_P1;SDS_P2;PMS_P1;PMS_P2;Temp;Humidity;BMP_temperature;BMP_pressure;BME280_temperature;BME280_humidity;BME280_pressure;Samples;Min_cycle;Max_cycle;Signal;HPM_P1;HPM_P2
2023/09/08 00:02:13;;;;;;;7.07;6.40;;;18.00;99.90;;;;;;5046079;28;20188;-70
2023/09/08 00:04:39;;;;;;;9.77;6.20;;;18.00;99.90;;;;;;5047895;28;20274;-70
2023/09/08 00:07:04;;;;;;;7.37;6.67;;;18.10;99.90;;;;;;5057817;28;20311;-70
2023/09/08 00:09:30;;;;;;;9.80;6.17;;;18.00;99.90;;;;;;5068629;28;20250;-70
2023/09/08 00:12:01;;;;;;;7.23;6.60;;;18.00;99.90;;;;;;5058086;28;20654;-70
2023/09/08 00:14:27;;;;;;;7.03;6.33;;;18.00;99.90;;;;;;5048860;28;20507;-70
2023/09/08 00:16:56;;;;;;;6.90;6.30;;;18.00;99.90;;;;;;5048467;28;20515;-70
2023/09/08 00:19:22;;;;;;;7.50;6.70;;;18.00;99.90;;;;;;5049188;28;20205;-70
2023/09/08 00:21:49;;;;;;;7.90;7.10;;;18.00;99.90;;;;;;5048896;28;20935;-70
2023/09/08 00:24:15;;;;;;;6.73;6.17;;;18.00;99.90;;;;;;5049100;28;20959;-70
2023/09/08 00:26:40;;;;;;;7.90;6.70;;;17.90;99.90;;;;;;5030305;28;20550;-69
2023/09/08 00:29:06;;;;;;;7.30;6.60;;;17.90;99.90;;;;;;5053562;28;21043;-71
2023/09/08 00:31:32;;;;;;;7.50;6.80;;;17.90;99.90;;;;;;5068845;28;20215;-71
2023/09/08 00:33:58;;;;;;;7.60;6.90;;;17.80;99.90;;;;;;5067690;28;20207;-71
2023/09/08 00:36:24;;;;;;;7.70;7.00;;;17.90;99.90;;;;;;5068179;28;20419;-71
2023/09/08 00:38:49;;;;;;;6.90;6.33;;;17.80;99.90;;;;;;5068904;28;20187;-71
2023/09/08 00:41:15;;;;;;;7.57;6.73;;;17.80;99.90;;;;;;5068830;28;20601;-71
2023/09/08 00:43:41;;;;;;;7.47;6.87;;;17.80;99.90;;;;;;5068866;28;20692;-71
2023/09/08 00:46:07;;;;;;;8.10;7.30;;;17.80;99.90;;;;;;5052903;28;20285;-71
2023/09/08 00:48:34;;;;;;;8.20;7.17;;;17.70;99.90;;;;;;5047932;28;20643;-70
2023/09/08 00:51:01;;;;;;;8.30;7.60;;;17.70;99.90;;;;;;5057355;28;20439;-70
2023/09/08 00:53:27;;;;;;;7.87;7.07;;;17.60;99.90;;;;;;5069550;28;20844;-70
2023/09/08 00:55:54;;;;;;;7.80;7.00;;;17.60;99.90;;;;;;5061230;28;20415;-70
2023/09/08 00:58:20;;;;;;;8.10;7.40;;;17.60;99.90;;;;;;5069055;28;20491;-70
2023/09/08 01:00:46;;;;;;;8.60;7.70;;;17.50;99.90;;;;;;5059925;28;20472;-71
2023/09/08 01:03:12;;;;;;;7.90;7.20;;;17.50;99.90;;;;;;5053024;28;20540;-70
2023/09/08 01:05:38;;;;;;;7.60;6.90;;;17.40;99.90;;;;;;5062345;28;20415;-70
2023/09/08 01:08:05;;;;;;;7.87;7.10;;;17.50;99.90;;;;;;5068262;28;20188;-71
2023/09/08 01:10:31;;;;;;;8.60;7.90;;;17.40;99.90;;;;;;5066879;28;20438;-70
2023/09/08 01:12:57;;;;;;;8.97;7.27;;;17.40;99.90;;;;;;5068661;28;20411;-70
2023/09/08 01:15:23;;;;;;;7.73;7.10;;;17.50;99.90;;;;;;5066495;28;20309;-70
2023/09/08 01:17:49;;;;;;;8.17;7.40;;;17.50;99.90;;;;;;5067613;28;20204;-70
2023/09/08 01:20:22;;;;;;;8.60;7.70;;;17.50;99.90;;;;;;5067837;28;20204;-70
2023/09/08 01:23:04;;;;;;;8.00;7.20;;;17.50;99.90;;;;;;5068166;28;20943;-70
2023/09/08 01:25:31;;;;;;;8.23;7.53;;;17.60;99.90;;;;;;5066449;28;20422;-70
2023/09/08 01:28:01;;;;;;;7.90;7.20;;;17.60;99.90;;;;;;5065941;28;20400;-70
2023/09/08 01:30:32;;;;;;;7.90;7.20;;;17.60;99.90;;;;;;5063610;28;20968;-70
2023/09/08 01:32:58;;;;;;;8.43;7.10;;;17.60;99.90;;;;;;5067964;28;20457;-70
2023/09/08 01:35:24;;;;;;;7.43;6.83;;;17.60;99.90;;;;;;5065918;28;20423;-70
2023/09/08 01:37:50;;;;;;;7.30;6.60;;;17.60;99.90;;;;;;5067417;28;20419;-70
2023/09/08 01:40:16;;;;;;;8.43;7.60;;;17.50;99.90;;;;;;5048991;28;20446;-70
2023/09/08 01:42:42;;;;;;;8.37;7.63;;;17.40;99.90;;;;;;5067706;28;20185;-70
2023/09/08 01:45:08;;;;;;;11.73;8.07;;;17.40;99.90;;;;;;5059984;28;20456;-70
2023/09/08 01:47:34;;;;;;;7.50;6.80;;;17.40;99.90;;;;;;5046918;28;20178;-70
2023/09/08 01:50:01;;;;;;;7.83;7.13;;;17.40;99.90;;;;;;5047309;28;20470;-70
2023/09/08 01:52:27;;;;;;;7.97;7.17;;;17.40;99.90;;;;;;5046274;28;20416;-70
2023/09/08 01:54:52;;;;;;;7.83;7.03;;;17.30;99.90;;;;;;5047177;28;20763;-70
2023/09/08 01:57:18;;;;;;;8.40;7.60;;;17.30;99.90;;;;;;5057381;28;20411;-70
2023/09/08 01:59:47;;;;;;;8.83;7.93;;;17.20;99.90;;;;;;5067121;28;20871;-70
2023/09/08 02:02:13;;;;;;;10.10;7.83;;;17.20;99.90;;;;;;5066976;28;20426;-70
2023/09/08 02:04:39;;;;;;;6.67;5.97;;;17.10;99.90;;;;;;5066792;28;20455;-70
2023/09/08 02:07:05;;;;;;;8.00;7.40;;;17.10;99.90;;;;;;5066483;28;20417;-70
2023/09/08 02:09:35;;;;;;;7.53;6.83;;;17.10;99.90;;;;;;5066806;28;20739;-70
2023/09/08 02:12:01;;;;;;;8.77;7.87;;;17.20;99.90;;;;;;5065900;28;20256;-70
2023/09/08 02:14:27;;;;;;;8.40;7.60;;;17.20;99.90;;;;;;5066860;28;20498;-71
2023/09/08 02:16:54;;;;;;;8.17;7.47;;;17.20;99.90;;;;;;5066216;28;20404;-69
2023/09/08 02:19:19;;;;;;;8.10;7.30;;;17.20;99.90;;;;;;5066479;28;20207;-70
2023/09/08 02:21:46;;;;;;;8.00;7.20;;;17.10;99.90;;;;;;5066734;28;20415;-70
2023/09/08 02:24:12;;;;;;;7.30;6.60;;;17.10;99.90;;;;;;5066801;28;20542;-70
2023/09/08 02:26:39;;;;;;;8.17;7.17;;;17.00;99.90;;;;;;5065293;28;20425;-70
2023/09/08 02:29:04;;;;;;;7.40;6.77;;;17.00;99.90;;;;;;5058406;28;20212;-70
2023/09/08 02:31:30;;;;;;;7.40;6.70;;;16.90;99.90;;;;;;5046525;28;20933;-70
2023/09/08 02:33:56;;;;;;;9.00;7.80;;;16.90;99.90;;;;;;5046949;28;21105;-70
2023/09/08 02:36:25;;;;;;;8.23;7.50;;;16.80;99.90;;;;;;5045718;28;20213;-70
2023/09/08 02:38:54;;;;;;;9.03;8.13;;;16.80;99.90;;;;;;5045369;28;20199;-70
2023/09/08 02:41:21;;;;;;;9.90;7.73;;;16.70;99.90;;;;;;5046508;28;20511;-70
2023/09/08 02:43:47;;;;;;;8.03;7.30;;;16.70;99.90;;;;;;5046539;28;20460;-70
2023/09/08 02:46:13;;;;;;;8.20;7.17;;;16.70;99.90;;;;;;5059614;28;20412;-70
2023/09/08 02:48:39;;;;;;;7.20;6.63;;;16.70;99.90;;;;;;5066204;28;20516;-70
2023/09/08 02:51:05;;;;;;;8.40;7.60;;;16.70;99.90;;;;;;5066673;28;21303;-70
2023/09/08 02:53:32;;;;;;;7.30;6.70;;;16.60;99.90;;;;;;5065181;28;20462;-70
2023/09/08 02:55:58;;;;;;;8.33;7.53;;;16.60;99.90;;;;;;5042301;28;20413;-70
2023/09/08 02:58:24;;;;;;;8.30;7.47;;;16.60;99.90;;;;;;5046632;28;20426;-70
2023/09/08 03:00:53;;;;;;;9.80;7.90;;;16.60;99.90;;;;;;5046142;28;20432;-70
2023/09/08 03:03:21;;;;;;;8.33;7.63;;;16.60;99.90;;;;;;5046406;28;20413;-70
2023/09/08 03:05:47;;;;;;;8.03;7.20;;;16.60;99.90;;;;;;5045243;28;20457;-70
2023/09/08 03:08:13;;;;;;;16.50;7.00;;;16.70;99.90;;;;;;5046421;28;20404;-70
2023/09/08 03:10:39;;;;;;;12.77;7.67;;;16.70;99.90;;;;;;5044808;28;20197;-70
2023/09/08 03:13:05;;;;;;;8.70;7.70;;;16.70;99.90;;;;;;5045194;28;20173;-70
2023/09/08 03:15:31;;;;;;;8.30;7.43;;;16.70;99.90;;;;;;5046153;28;20423;-70
2023/09/08 03:18:00;;;;;;;8.40;7.70;;;16.70;99.90;;;;;;5065558;28;20178;-71
2023/09/08 03:20:27;;;;;;;7.90;7.10;;;16.60;99.90;;;;;;5066469;28;20201;-72
2023/09/08 03:22:53;;;;;;;7.97;7.27;;;16.60;99.90;;;;;;5066043;28;20423;-71
2023/09/08 03:25:18;;;;;;;8.07;7.27;;;16.50;99.90;;;;;;5065789;28;20451;-71
2023/09/08 03:27:44;;;;;;;9.20;8.30;;;16.50;99.90;;;;;;5065286;28;20951;-71
2023/09/08 03:30:11;;;;;;;9.60;8.67;;;16.40;99.90;;;;;;5048603;28;20205;-71
2023/09/08 03:32:37;;;;;;;9.70;8.67;;;16.40;99.90;;;;;;5046229;28;20261;-71
2023/09/08 03:35:07;;;;;;;11.67;8.40;;;16.50;99.90;;;;;;5045787;28;20482;-70
2023/09/08 03:37:34;;;;;;;9.87;8.13;;;16.50;99.90;;;;;;5045598;28;20447;-71
2023/09/08 03:40:00;;;;;;;9.10;8.20;;;16.50;99.90;;;;;;5047759;28;20432;-71
2023/09/08 03:42:26;;;;;;;8.73;7.93;;;16.50;99.90;;;;;;5050012;28;20419;-71
2023/09/08 03:44:51;;;;;;;9.10;8.17;;;16.50;99.90;;;;;;5049095;28;20240;-71
2023/09/08 03:47:17;;;;;;;9.37;8.00;;;16.40;99.90;;;;;;5069337;28;20174;-71
2023/09/08 03:49:43;;;;;;;9.57;8.77;;;16.40;99.90;;;;;;5069698;28;20203;-71
2023/09/08 03:52:09;;;;;;;8.43;7.67;;;16.40;99.90;;;;;;5069563;28;20264;-71
2023/09/08 03:54:34;;;;;;;12.10;8.13;;;16.40;99.90;;;;;;5069655;28;20295;-71
2023/09/08 03:57:00;;;;;;;9.77;8.13;;;16.50;99.90;;;;;;5068720;28;20620;-71
2023/09/08 03:59:26;;;;;;;9.40;8.40;;;16.50;99.90;;;;;;5069822;28;20204;-71
2023/09/08 04:01:51;;;;;;;10.37;7.73;;;16.50;99.90;;;;;;5069905;28;20185;-71
2023/09/08 04:04:19;;;;;;;9.57;8.60;;;16.40;99.90;;;;;;5066851;28;20209;-71
2023/09/08 04:06:45;;;;;;;8.87;7.40;;;16.40;99.90;;;;;;5049169;28;20653;-71
2023/09/08 04:09:11;;;;;;;9.90;8.43;;;16.40;99.90;;;;;;5049206;28;20433;-71
2023/09/08 04:11:36;;;;;;;10.37;9.37;;;16.40;99.90;;;;;;5052820;28;20185;-71
2023/09/08 04:14:02;;;;;;;9.33;8.47;;;16.40;99.90;;;;;;5057087;28;20185;-71
2023/09/08 04:16:29;;;;;;;9.60;8.70;;;16.40;99.90;;;;;;5072873;28;20675;-72
2023/09/08 04:18:54;;;;;;;10.27;9.17;;;16.50;99.90;;;;;;5058571;28;20248;-71
2023/09/08 04:21:20;;;;;;;10.93;8.40;;;16.50;99.90;;;;;;5058613;28;20444;-71
2023/09/08 04:23:46;;;;;;;12.00;8.50;;;16.60;99.90;;;;;;5051009;28;20487;-71
2023/09/08 04:26:13;;;;;;;10.50;7.93;;;16.60;99.90;;;;;;5048642;28;20265;-71
2023/09/08 04:28:38;;;;;;;8.90;7.83;;;16.70;99.90;;;;;;5050048;28;20942;-71
2023/09/08 04:31:04;;;;;;;9.70;8.80;;;16.70;99.90;;;;;;5069098;28;20482;-71
2023/09/08 04:33:30;;;;;;;10.03;8.70;;;16.60;99.90;;;;;;5067371;28;20218;-71
2023/09/08 04:35:56;;;;;;;13.13;8.00;;;16.60;99.90;;;;;;5068019;28;20196;-71
2023/09/08 04:38:21;;;;;;;8.80;8.00;;;16.60;99.90;;;;;;5068488;28;20181;-71
2023/09/08 04:40:47;;;;;;;10.27;8.23;;;16.50;99.90;;;;;;5069471;28;20201;-71
2023/09/08 04:43:13;;;;;;;9.33;8.37;;;16.60;99.90;;;;;;5068680;28;20908;-71
2023/09/08 04:45:39;;;;;;;10.43;9.40;;;16.60;99.90;;;;;;5056858;28;20186;-71
2023/09/08 04:48:05;;;;;;;9.60;8.57;;;16.60;99.90;;;;;;5048100;28;20184;-71
2023/09/08 04:50:31;;;;;;;8.90;8.10;;;16.70;99.90;;;;;;5048607;28;20289;-72
2023/09/08 04:52:56;;;;;;;9.57;8.53;;;16.70;99.90;;;;;;5053711;28;20511;-71
2023/09/08 04:55:22;;;;;;;9.13;8.20;;;16.70;99.90;;;;;;5059599;28;20189;-71
2023/09/08 04:57:48;;;;;;;9.43;8.43;;;16.70;99.90;;;;;;5067556;28;20177;-71
2023/09/08 05:00:14;;;;;;;10.27;9.27;;;16.70;99.90;;;;;;5059332;28;20205;-71
2023/09/08 05:02:40;;;;;;;9.03;8.17;;;16.70;99.90;;;;;;5063047;28;20188;-71
2023/09/08 05:05:06;;;;;;;9.40;8.50;;;16.60;99.90;;;;;;5060875;28;20458;-71
2023/09/08 05:07:31;;;;;;;9.67;8.77;;;16.70;99.90;;;;;;5058585;28;20184;-71
2023/09/08 05:09:57;;;;;;;10.17;9.27;;;16.60;99.90;;;;;;5059835;28;20928;-71
2023/09/08 05:12:23;;;;;;;8.70;7.90;;;16.50;99.90;;;;;;5068291;28;20602;-72
2023/09/08 05:14:48;;;;;;;11.40;8.57;;;16.50;99.90;;;;;;5067491;28;20185;-71
2023/09/08 05:17:14;;;;;;;9.73;8.83;;;16.40;99.90;;;;;;5066282;28;20581;-71
2023/09/08 05:19:40;;;;;;;9.53;8.73;;;16.40;99.90;;;;;;5068103;28;20493;-71
2023/09/08 05:22:09;;;;;;;9.87;7.63;;;16.30;99.90;;;;;;5068305;28;20188;-71
2023/09/08 05:24:34;;;;;;;11.03;9.10;;;16.30;99.90;;;;;;5057457;28;20233;-71
2023/09/08 05:27:00;;;;;;;9.43;8.53;;;16.40;99.90;;;;;;5067133;28;20845;-71
2023/09/08 05:29:26;;;;;;;9.10;7.87;;;16.40;99.90;;;;;;5056674;28;20201;-71
2023/09/08 05:31:52;;;;;;;8.80;7.83;;;16.50;99.90;;;;;;5047904;28;20197;-71
2023/09/08 05:34:17;;;;;;;10.67;7.43;;;16.60;99.90;;;;;;5048180;28;20265;-71
2023/09/08 05:36:43;;;;;;;8.60;7.70;;;16.70;99.90;;;;;;5046276;28;20185;-71
2023/09/08 05:39:10;;;;;;;8.77;7.97;;;16.80;99.90;;;;;;5047831;28;20682;-71
2023/09/08 05:41:35;;;;;;;11.53;7.43;;;16.90;99.90;;;;;;5054357;28;20211;-71
2023/09/08 05:44:01;;;;;;;8.80;7.67;;;17.00;99.90;;;;;;5059499;28;21251;-71
2023/09/08 05:46:27;;;;;;;9.03;8.13;;;17.00;99.90;;;;;;5049448;28;20178;-71
2023/09/08 05:48:53;;;;;;;8.80;7.87;;;17.10;99.90;;;;;;5047651;28;20182;-71
2023/09/08 05:51:18;;;;;;;8.43;7.50;;;17.20;99.90;;;;;;5045618;28;20182;-71
2023/09/08 05:53:44;;;;;;;9.40;8.50;;;17.30;99.90;;;;;;5057159;28;20888;-71
2023/09/08 05:56:10;;;;;;;12.03;8.50;;;17.40;99.90;;;;;;5066268;28;20208;-71
2023/09/08 05:58:36;;;;;;;8.47;7.67;;;17.50;99.90;;;;;;5067628;28;20705;-71
2023/09/08 06:01:03;;;;;;;8.17;7.37;;;17.70;99.90;;;;;;5065470;28;20224;-71
2023/09/08 06:03:29;;;;;;;7.83;7.07;;;17.80;99.90;;;;;;5059024;28;20558;-71
2023/09/08 06:05:56;;;;;;;9.57;7.50;;;17.90;99.90;;;;;;5054282;28;20503;-71
2023/09/08 06:08:22;;;;;;;8.40;7.60;;;18.10;99.90;;;;;;5049392;28;20429;-71
2023/09/08 06:10:48;;;;;;;12.30;7.17;;;18.30;99.90;;;;;;5045866;28;20431;-71
2023/09/08 06:13:14;;;;;;;11.73;8.17;;;18.50;99.90;;;;;;5056569;28;20832;-71
2023/09/08 06:15:39;;;;;;;8.30;6.40;;;18.60;99.90;;;;;;5051817;28;20416;-71
2023/09/08 06:18:05;;;;;;;9.67;6.70;;;18.80;99.90;;;;;;5049348;28;20189;-71
2023/09/08 06:20:31;;;;;;;7.87;7.13;;;19.00;99.90;;;;;;5045804;28;20225;-71
2023/09/08 06:22:57;;;;;;;8.50;6.80;;;19.10;99.90;;;;;;5048556;28;20431;-71
2023/09/08 06:25:22;;;;;;;7.83;6.93;;;19.30;99.90;;;;;;5061756;28;20208;-71
2023/09/08 06:27:48;;;;;;;7.03;6.43;;;19.50;99.90;;;;;;5051367;28;20196;-71
2023/09/08 06:30:16;;;;;;;8.70;7.43;;;19.70;99.90;;;;;;5052342;28;20251;-71
2023/09/08 06:32:42;;;;;;;6.60;6.00;;;19.80;99.90;;;;;;5045225;28;20178;-71
2023/09/08 06:35:08;;;;;;;9.03;7.90;;;20.00;99.90;;;;;;5047415;28;20408;-71
2023/09/08 06:37:38;;;;;;;7.13;6.43;;;20.20;99.90;;;;;;5048892;28;20491;-71
2023/09/08 06:40:05;;;;;;;8.63;7.57;;;20.30;99.90;;;;;;5053331;28;20443;-71
2023/09/08 06:42:31;;;;;;;7.40;6.70;;;20.50;99.90;;;;;;5041743;28;20417;-71
2023/09/08 06:44:58;;;;;;;8.60;5.87;;;20.70;99.90;;;;;;5043798;28;20514;-71
2023/09/08 06:47:24;;;;;;;7.67;6.97;;;20.80;99.90;;;;;;5056304;28;20409;-69
2023/09/08 06:49:50;;;;;;;6.40;5.80;;;20.90;99.90;;;;;;5034971;28;20783;-71
2023/09/08 06:52:17;;;;;;;7.43;6.73;;;21.00;99.90;;;;;;5055133;28;20648;-71
2023/09/08 06:54:42;;;;;;;7.27;6.57;;;21.10;99.90;;;;;;5048330;28;20231;-71
2023/09/08 06:57:08;;;;;;;9.40;6.23;;;21.30;99.90;;;;;;5046451;28;20901;-71
2023/09/08 06:59:34;;;;;;;9.93;7.37;;;21.40;99.90;;;;;;5049635;28;20209;-71
2023/09/08 07:01:59;;;;;;;6.70;6.00;;;21.50;99.90;;;;;;5045822;28;20181;-71
2023/09/08 07:04:25;;;;;;;6.77;6.17;;;21.60;99.90;;;;;;5066812;28;20243;-71
2023/09/08 07:06:54;;;;;;;8.40;7.40;;;21.70;99.90;;;;;;5066048;28;20672;-71
2023/09/08 07:09:20;;;;;;;6.60;6.00;;;21.80;99.90;;;;;;5062208;28;20193;-71
2023/09/08 07:11:46;;;;;;;7.47;6.00;;;21.90;99.90;;;;;;5067074;28;20407;-71
2023/09/08 07:14:12;;;;;;;7.43;6.60;;;21.90;99.90;;;;;;5068764;28;20411;-71
2023/09/08 07:16:38;;;;;;;7.13;6.40;;;22.00;99.90;;;;;;5070136;28;20427;-71
2023/09/08 07:19:05;;;;;;;6.73;6.13;;;22.00;99.90;;;;;;5058593;28;20440;-71
2023/09/08 07:21:30;;;;;;;8.43;7.13;;;22.10;99.90;;;;;;5050729;28;20182;-71
2023/09/08 07:23:56;;;;;;;7.37;6.77;;;22.10;99.90;;;;;;5051070;28;20470;-71
2023/09/08 07:26:22;;;;;;;7.57;6.83;;;22.10;99.90;;;;;;5049924;28;20182;-71
2023/09/08 07:28:48;;;;;;;8.47;5.97;;;22.10;99.90;;;;;;5065851;28;20177;-71
2023/09/08 07:31:14;;;;;;;7.27;6.20;;;22.10;99.90;;;;;;5055179;28;20211;-71
2023/09/08 07:33:40;;;;;;;7.07;5.93;;;22.20;99.90;;;;;;5066343;28;20455;-71
2023/09/08 07:36:07;;;;;;;8.13;6.33;;;22.20;99.90;;;;;;5072548;28;20768;-71
2023/09/08 07:38:33;;;;;;;7.33;5.93;;;22.30;99.90;;;;;;5068307;28;20184;-71
2023/09/08 07:41:01;;;;;;;6.60;6.00;;;22.30;99.90;;;;;;5058022;28;20452;-71
2023/09/08 07:43:27;;;;;;;8.60;6.00;;;22.40;99.90;;;;;;5054884;28;20426;-71
2023/09/08 07:45:53;;;;;;;7.10;6.10;;;22.50;99.90;;;;;;5069411;28;20419;-71
2023/09/08 07:48:18;;;;;;;6.73;5.47;;;22.50;99.90;;;;;;5070403;28;20465;-71
2023/09/08 07:50:44;;;;;;;7.90;6.93;;;22.60;99.90;;;;;;5069736;28;20689;-71
2023/09/08 07:53:11;;;;;;;7.03;6.33;;;22.60;99.90;;;;;;5068493;28;20264;-71
2023/09/08 07:55:36;;;;;;;5.90;5.00;;;22.70;99.90;;;;;;5069247;28;20202;-71
2023/09/08 07:58:06;;;;;;;8.60;6.27;;;22.80;99.90;;;;;;5069602;28;20497;-71
2023/09/08 08:00:32;;;;;;;6.67;6.07;;;22.80;99.90;;;;;;5066635;28;21008;-71
2023/09/08 08:02:58;;;;;;;7.27;5.23;;;22.90;99.90;;;;;;5069905;28;20419;-71
2023/09/08 08:05:25;;;;;;;7.77;6.47;;;23.00;99.90;;;;;;5069528;28;20207;-71
2023/09/08 08:07:51;;;;;;;6.40;5.80;;;23.00;99.90;;;;;;5069264;28;21264;-71
2023/09/08 08:10:17;;;;;;;9.23;6.40;;;23.10;99.90;;;;;;5069806;28;20484;-71
2023/09/08 08:12:43;;;;;;;7.00;6.30;;;23.10;99.90;;;;;;5068099;28;20419;-71
2023/09/08 08:15:10;;;;;;;6.90;5.50;;;23.20;99.90;;;;;;5069302;28;20519;-71
2023/09/08 08:17:37;;;;;;;7.23;6.53;;;23.30;99.90;;;;;;5069071;28;20757;-72
2023/09/08 08:20:09;;;;;;;6.90;6.30;;;23.30;99.90;;;;;;5069823;28;20434;-71
2023/09/08 08:22:36;;;;;;;7.87;6.37;;;23.40;99.90;;;;;;5069474;28;20419;-71
2023/09/08 08:25:03;;;;;;;6.87;6.10;;;23.40;99.90;;;;;;5068748;28;20459;-71
2023/09/08 08:27:30;;;;;;;7.73;6.40;;;23.40;99.90;;;;;;5062432;28;20916;-71
2023/09/08 08:29:59;;;;;;;6.40;5.80;;;23.50;99.90;;;;;;5049130;28;20443;-70
2023/09/08 08:32:25;;;;;;;7.30;5.87;;;23.50;99.90;;;;;;5056705;28;20426;-71
2023/09/08 08:34:51;;;;;;;7.20;6.50;;;23.60;99.90;;;;;;5068732;28;20431;-71
2023/09/08 08:37:17;;;;;;;6.67;6.10;;;23.60;99.90;;;;;;5067563;28;20407;-71
2023/09/08 08:39:43;;;;;;;6.60;6.00;;;23.60;99.90;;;;;;5068804;28;20201;-70
2023/09/08 08:42:12;;;;;;;6.87;6.17;;;23.70;99.90;;;;;;5069221;28;20423;-71
2023/09/08 08:44:39;;;;;;;6.33;5.73;;;23.70;99.90;;;;;;5068474;28;20670;-71
2023/09/08 08:47:07;;;;;;;6.40;5.80;;;23.80;99.90;;;;;;5068548;28;20472;-71
2023/09/08 08:49:33;;;;;;;9.10;5.80;;;23.90;99.90;;;;;;5069193;28;20438;-71
2023/09/08 08:52:03;;;;;;;6.40;5.90;;;23.90;99.90;;;;;;5068947;28;20416;-71
2023/09/08 08:54:29;;;;;;;6.40;5.80;;;24.00;99.90;;;;;;5067731;28;20423;-71
2023/09/08 08:56:56;;;;;;;8.23;6.40;;;24.10;99.90;;;;;;5067861;28;20423;-71
2023/09/08 08:59:21;;;;;;;6.50;5.90;;;24.10;99.90;;;;;;5068937;28;20439;-71
2023/09/08 09:01:48;;;;;;;6.47;5.87;;;24.20;99.90;;;;;;5068576;28;20425;-70
2023/09/08 09:04:16;;;;;;;6.50;5.73;;;24.20;99.90;;;;;;5068740;28;20470;-71
2023/09/08 09:06:42;;;;;;;8.10;6.03;;;24.30;99.90;;;;;;5067741;28;20416;-71
2023/09/08 09:09:08;;;;;;;7.30;6.20;;;24.30;99.90;;;;;;5068947;28;20493;-71
2023/09/08 09:11:34;;;;;;;7.07;5.23;;;24.50;99.90;;;;;;5068702;28;20411;-71
2023/09/08 09:13:59;;;;;;;6.20;5.70;;;24.50;99.90;;;;;;5068468;28;20416;-71
2023/09/08 09:16:25;;;;;;;6.40;5.80;;;24.70;99.90;;;;;;5063173;28;20239;-71
2023/09/08 09:18:56;;;;;;;6.07;5.57;;;24.80;99.90;;;;;;5066976;28;20187;-71
2023/09/08 09:21:22;;;;;;;8.20;5.80;;;24.90;99.90;;;;;;5067207;28;20415;-71
2023/09/08 09:23:47;;;;;;;7.30;5.50;;;25.00;99.90;;;;;;5068033;28;20462;-71
2023/09/08 09:26:24;;;;;;;6.90;5.50;;;25.00;99.90;;;;;;5067399;28;20177;-71
2023/09/08 09:28:52;;;;;;;7.40;5.87;;;25.20;99.90;;;;;;5050226;28;20174;-71
2023/09/08 09:31:18;;;;;;;5.97;4.97;;;25.30;99.90;;;;;;5048095;28;20467;-71
2023/09/08 09:33:45;;;;;;;6.23;5.40;;;25.50;99.90;;;;;;5048108;28;20408;-71
2023/09/08 09:36:20;;;;;;;5.90;5.40;;;25.60;99.90;;;;;;5046674;28;20404;-71
2023/09/08 09:38:47;;;;;;;13.23;5.60;;;25.70;99.90;;;;;;5047807;28;20463;-71
2023/09/08 09:41:12;;;;;;;6.07;5.53;;;25.80;99.90;;;;;;5048294;28;20416;-71
2023/09/08 09:43:38;;;;;;;5.10;4.70;;;26.00;99.90;;;;;;5047712;28;20475;-71
2023/09/08 09:46:08;;;;;;;5.83;5.23;;;26.10;99.90;;;;;;5046930;28;20174;-71
2023/09/08 09:48:35;;;;;;;5.30;4.90;;;26.20;99.90;;;;;;5047898;28;20177;-71
2023/09/08 09:51:16;;;;;;;5.67;5.17;;;26.30;99.90;;;;;;5046426;28;20428;-71
2023/09/08 09:53:42;;;;;;;6.37;5.77;;;26.40;99.90;;;;;;5047969;28;20466;-71
2023/09/08 09:56:09;;;;;;;6.10;5.50;;;26.50;99.90;;;;;;5046684;28;20444;-71
2023/09/08 09:58:36;;;;;;;6.13;5.53;;;26.70;99.90;;;;;;5047900;28;20413;-71
2023/09/08 10:01:03;;;;;;;6.13;5.53;;;26.70;99.80;;;;;;5046087;28;20829;-71
2023/09/08 10:03:30;;;;;;;5.70;5.30;;;26.80;99.20;;;;;;5047584;28;20478;-71
2023/09/08 10:05:56;;;;;;;5.47;4.97;;;26.90;98.70;;;;;;5046595;28;20507;-71
2023/09/08 10:08:23;;;;;;;5.90;4.70;;;26.80;98.60;;;;;;5047580;28;20427;-71
2023/09/08 10:10:50;;;;;;;10.90;5.00;;;26.90;99.40;;;;;;5047648;28;20514;-71
2023/09/08 10:13:26;;;;;;;5.60;5.20;;;27.00;99.10;;;;;;5047015;28;20969;-71
2023/09/08 10:15:55;;;;;;;5.70;5.13;;;27.10;98.80;;;;;;5045493;28;20435;-71
2023/09/08 10:18:22;;;;;;;5.67;5.13;;;27.10;98.00;;;;;;5047384;28;20991;-71
2023/09/08 10:20:49;;;;;;;5.70;5.17;;;27.20;98.30;;;;;;5047282;28;20976;-71
2023/09/08 10:23:33;;;;;;;5.87;5.37;;;27.20;98.20;;;;;;5047042;28;20412;-71
2023/09/08 10:26:04;;;;;;;6.63;5.53;;;27.30;98.60;;;;;;5046217;28;20769;-71
2023/09/08 10:28:32;;;;;;;6.13;5.60;;;27.40;98.10;;;;;;5043838;28;21050;-71
2023/09/08 10:30:58;;;;;;;5.83;4.90;;;27.40;97.50;;;;;;5047147;28;20463;-71
2023/09/08 10:33:25;;;;;;;5.90;5.33;;;27.40;97.00;;;;;;5047179;28;20865;-71
2023/09/08 10:35:52;;;;;;;5.90;5.30;;;27.40;96.40;;;;;;5045059;28;20435;-71
2023/09/08 10:38:31;;;;;;;5.90;5.33;;;27.50;96.90;;;;;;5049617;28;20970;-71
2023/09/08 10:41:15;;;;;;;5.60;5.20;;;27.50;96.50;;;;;;5068062;28;20427;-71
2023/09/08 10:43:42;;;;;;;5.70;5.20;;;27.60;97.70;;;;;;5061546;28;20452;-71
2023/09/08 10:46:21;;;;;;;5.80;5.30;;;27.70;97.90;;;;;;5054838;28;20440;-71
2023/09/08 10:48:47;;;;;;;6.57;5.80;;;27.80;96.40;;;;;;5047095;28;20416;-71
2023/09/08 10:51:13;;;;;;;5.80;5.20;;;27.80;96.90;;;;;;5052435;28;20743;-71
2023/09/08 10:53:40;;;;;;;5.20;4.80;;;27.80;96.40;;;;;;5050675;28;20272;-70
2023/09/08 10:56:05;;;;;;;6.07;5.57;;;27.90;97.00;;;;;;5051647;28;20442;-71
2023/09/08 10:58:35;;;;;;;5.73;5.30;;;27.90;96.90;;;;;;5064650;28;21262;-71
2023/09/08 11:01:04;;;;;;;5.10;4.70;;;27.90;96.70;;;;;;5053597;28;20200;-71
2023/09/08 11:03:39;;;;;;;6.00;5.40;;;27.90;96.00;;;;;;5056042;28;20423;-71
2023/09/08 11:06:09;;;;;;;5.97;5.30;;;28.00;96.80;;;;;;5066422;28;20414;-70
2023/09/08 11:08:42;;;;;;;6.13;5.40;;;28.10;96.90;;;;;;5067283;28;20415;-70
2023/09/08 11:11:09;;;;;;;6.03;5.53;;;28.20;96.20;;;;;;5066725;28;20481;-70
2023/09/08 11:13:35;;;;;;;6.50;5.90;;;28.20;95.40;;;;;;5067183;28;20424;-70
2023/09/08 11:16:02;;;;;;;5.47;4.87;;;28.20;94.60;;;;;;5065708;28;20927;-70
2023/09/08 11:18:33;;;;;;;7.13;6.03;;;28.20;95.40;;;;;;5059672;28;20183;-70
2023/09/08 11:21:01;;;;;;;5.53;4.90;;;28.20;94.70;;;;;;5046541;28;20507;-70
2023/09/08 11:23:27;;;;;;;8.70;5.30;;;28.20;95.30;;;;;;5041927;28;20450;-70
2023/09/08 11:25:54;;;;;;;6.07;5.57;;;28.20;95.30;;;;;;5045493;28;20423;-70
2023/09/08 11:28:22;;;;;;;5.93;5.53;;;28.20;95.20;;;;;;5051516;28;20420;-70
2023/09/08 11:30:48;;;;;;;8.20;5.60;;;28.30;95.60;;;;;;5046522;28;20517;-70
2023/09/08 11:33:14;;;;;;;6.07;5.50;;;28.40;95.60;;;;;;5046263;28;20447;-70
2023/09/08 11:35:42;;;;;;;7.03;6.00;;;28.40;95.30;;;;;;5046161;28;20503;-70
2023/09/08 11:38:10;;;;;;;6.00;5.50;;;28.50;94.40;;;;;;5045709;28;20420;-70
2023/09/08 11:40:36;;;;;;;8.03;5.47;;;28.60;94.70;;;;;;5046679;28;21036;-70
2023/09/08 11:43:03;;;;;;;6.33;5.40;;;28.60;95.30;;;;;;5043164;28;20424;-70
2023/09/08 11:45:30;;;;;;;6.63;5.50;;;28.60;93.70;;;;;;5044735;28;20471;-70
2023/09/08 11:47:57;;;;;;;5.80;5.30;;;28.60;93.90;;;;;;5046027;28;20420;-71
2023/09/08 11:50:23;;;;;;;5.63;5.23;;;28.60;94.10;;;;;;5046150;28;20436;-70
2023/09/08 11:52:51;;;;;;;5.87;5.20;;;28.60;94.60;;;;;;5046462;28;20423;-70
2023/09/08 11:55:18;;;;;;;5.57;5.17;;;28.60;94.60;;;;;;5045622;28;20431;-70
2023/09/08 11:57:47;;;;;;;6.57;5.90;;;28.70;94.90;;;;;;5045489;28;20428;-70
2023/09/08 12:00:17;;;;;;;6.93;6.33;;;28.80;94.90;;;;;;5046289;28;20815;-70
2023/09/08 12:02:44;;;;;;;5.90;5.40;;;28.80;94.70;;;;;;5048568;28;20424;-70
2023/09/08 12:05:20;;;;;;;8.37;5.50;;;28.80;95.20;;;;;;5049399;28;20463;-70
2023/09/08 12:07:46;;;;;;;6.10;5.60;;;28.90;94.10;;;;;;5049704;28;20925;-70
2023/09/08 12:10:12;;;;;;;5.93;5.43;;;28.90;95.10;;;;;;5049515;28;20432;-70
2023/09/08 12:12:44;;;;;;;6.13;5.70;;;28.90;94.90;;;;;;5048543;28;20178;-70
2023/09/08 12:15:11;;;;;;;6.00;5.10;;;29.00;94.50;;;;;;5049092;28;20428;-70
2023/09/08 12:17:49;;;;;;;6.80;5.70;;;28.90;94.90;;;;;;5047817;28;20889;-70
2023/09/08 12:20:16;;;;;;;5.97;5.47;;;29.00;94.90;;;;;;5049448;28;20494;-70
2023/09/08 12:22:51;;;;;;;5.63;5.13;;;29.00;94.30;;;;;;5048436;28;20519;-70
2023/09/08 12:25:18;;;;;;;6.83;5.30;;;29.00;95.40;;;;;;5049055;28;20451;-70
2023/09/08 12:27:50;;;;;;;6.13;5.53;;;29.10;95.20;;;;;;5054828;28;20528;-70
2023/09/08 12:30:18;;;;;;;5.80;5.37;;;29.10;94.60;;;;;;5069580;28;20821;-70
2023/09/08 12:32:47;;;;;;;5.17;4.77;;;29.10;94.50;;;;;;5069056;28;20951;-70
2023/09/08 12:35:13;;;;;;;5.73;5.23;;;29.20;94.30;;;;;;5069079;28;20841;-70
2023/09/08 12:37:39;;;;;;;6.20;5.70;;;29.20;94.00;;;;;;5067154;28;20467;-70
2023/09/08 12:40:05;;;;;;;5.50;5.00;;;29.20;93.00;;;;;;5069302;28;20209;-70
2023/09/08 12:42:31;;;;;;;5.80;5.30;;;29.20;92.70;;;;;;5069132;28;20427;-70
2023/09/08 12:44:57;;;;;;;5.67;5.20;;;29.20;93.30;;;;;;5068458;28;20459;-70